Time;durP1;ratioP1;P1;durP2;ratioP2;P2;SDS_P1;SDS_P2;PMS_P1;PMS_P2;Temp;Humidity;BMP_temperature;BMP_pressure;BME280_temperature;BME280_humidity;BME280_pressure;Samples;Min_cycle;Max_cycle;Signal;HPM_P1;HPM_P2
2022/12/26 00:01:44;;;;;;;1.65;1.10;;;;;;;;;;5061367;28;20025;-84
2022/12/26 00:04:10;;;;;;;6.60;4.28;;;;;;;;;;5058061;28;20021;-84
2022/12/26 00:06:35;;;;;;;0.73;0.50;;;;;;;;;;5064438;28;20032;-85
2022/12/26 00:09:03;;;;;;;6.40;3.13;;;;;;;;;;5062784;28;20031;-84
2022/12/26 00:11:29;;;;;;;1.23;0.80;;;;;;;;;;5059563;28;20427;-84
2022/12/26 00:13:57;;;;;;;2.47;1.25;;;;;;;;;;5054665;28;20058;-86
2022/12/26 00:16:24;;;;;;;0.85;0.60;;;;;;;;;;5055661;28;20032;-84
2022/12/26 00:18:49;;;;;;;3.90;1.67;;;;;;;;;;5055167;28;20391;-84
2022/12/26 00:21:16;;;;;;;1.92;1.80;;;;;;;;;;5056850;28;20027;-85
2022/12/26 00:23:42;;;;;;;3.85;2.85;;;;;;;;;;5062491;28;20349;-83
2022/12/26 00:26:11;;;;;;;1.58;0.90;;;;;;;;;;5057472;28;20468;-84
2022/12/26 00:28:37;;;;;;;1.80;1.40;;;;;;;;;;5059635;28;20024;-83
2022/12/26 00:31:14;;;;;;;0.95;0.80;;;;;;;;;;5057475;28;20382;-85
2022/12/26 00:33:39;;;;;;;2.72;1.73;;;;;;;;;;5061382;28;20021;-83
2022/12/26 00:36:08;;;;;;;4.07;2.00;;;;;;;;;;5063092;28;20365;-84
2022/12/26 00:38:35;;;;;;;5.13;2.00;;;;;;;;;;5063411;28;20074;-87
2022/12/26 00:41:00;;;;;;;2.17;1.10;;;;;;;;;;5057030;28;20032;-85
2022/12/26 00:43:26;;;;;;;2.40;1.48;;;;;;;;;;5064301;28;20530;-85
2022/12/26 00:45:51;;;;;;;2.72;1.48;;;;;;;;;;5057754;28;20025;-86
2022/12/26 00:48:17;;;;;;;6.85;3.08;;;;;;;;;;5066817;28;20098;-85
2022/12/26 00:50:42;;;;;;;1.90;1.58;;;;;;;;;;5062794;28;20029;-84
2022/12/26 00:53:08;;;;;;;0.80;0.80;;;;;;;;;;5063020;28;20041;-84
2022/12/26 00:55:33;;;;;;;1.27;0.90;;;;;;;;;;5062113;28;20037;-83
2022/12/26 00:57:58;;;;;;;0.30;0.30;;;;;;;;;;5056904;28;20052;-83
2022/12/26 01:00:24;;;;;;;4.88;3.92;;;;;;;;;;5058803;28;20059;-83
2022/12/26 01:02:50;;;;;;;4.82;2.92;;;;;;;;;;5061074;28;20024;-84
2022/12/26 01:05:15;;;;;;;1.85;1.38;;;;;;;;;;5054695;28;20017;-84
2022/12/26 01:07:40;;;;;;;4.15;2.58;;;;;;;;;;5057403;28;20025;-86
2022/12/26 01:10:08;;;;;;;4.18;2.08;;;;;;;;;;5058048;28;20036;-86
2022/12/26 01:12:33;;;;;;;3.92;1.58;;;;;;;;;;5060495;28;20025;-84
2022/12/26 01:14:59;;;;;;;0.98;0.82;;;;;;;;;;5053548;28;20362;-84
2022/12/26 01:17:26;;;;;;;1.02;0.73;;;;;;;;;;5059828;28;20037;-85
2022/12/26 01:19:51;;;;;;;0.63;0.63;;;;;;;;;;5050757;28;20064;-85
2022/12/26 01:22:17;;;;;;;1.85;0.82;;;;;;;;;;5063297;28;20039;-86
2022/12/26 01:24:42;;;;;;;1.48;0.55;;;;;;;;;;5058377;28;20021;-84
2022/12/26 01:27:08;;;;;;;0.40;0.40;;;;;;;;;;5057258;28;20098;-82
2022/12/26 01:29:33;;;;;;;1.67;1.10;;;;;;;;;;5061445;28;20382;-86
2022/12/26 01:31:59;;;;;;;0.55;0.55;;;;;;;;;;5059771;28;20476;-87
2022/12/26 01:34:24;;;;;;;1.70;0.80;;;;;;;;;;5059608;28;20028;-83
2022/12/26 01:36:51;;;;;;;0.93;0.60;;;;;;;;;;5063825;28;20034;-85
2022/12/26 01:39:17;;;;;;;0.73;0.68;;;;;;;;;;5057460;28;20100;-85
2022/12/26 01:41:42;;;;;;;0.52;0.52;;;;;;;;;;5064770;28;20052;-84
2022/12/26 01:44:45;;;;;;;0.70;0.40;;;;;;;;;;5064500;28;20107;-83
2022/12/26 01:47:11;;;;;;;0.75;0.65;;;;;;;;;;5059163;28;20033;-85
2022/12/26 01:49:42;;;;;;;0.43;0.43;;;;;;;;;;5068020;28;20112;-83
2022/12/26 01:52:31;;;;;;;0.65;0.65;;;;;;;;;;5067990;28;20028;-85
2022/12/26 01:54:57;;;;;;;6.35;0.60;;;;;;;;;;5064892;28;20044;-83
2022/12/26 01:57:30;;;;;;;2.55;0.82;;;;;;;;;;5059332;28;20510;-84
2022/12/26 01:59:57;;;;;;;1.58;0.85;;;;;;;;;;5062167;28;20048;-86
2022/12/26 02:02:27;;;;;;;0.75;0.75;;;;;;;;;;5059839;28;20028;-85
2022/12/26 02:07:41;;;;;;;4.20;0.85;;;;;;;;;;5056031;28;20527;-86
2022/12/26 02:10:14;;;;;;;0.65;0.60;;;;;;;;;;5055423;28;20029;-83
2022/12/26 02:12:39;;;;;;;3.53;1.13;;;;;;;;;;5055831;28;20032;-86
2022/12/26 02:15:09;;;;;;;0.40;0.40;;;;;;;;;;5064682;28;20032;-82
2022/12/26 02:17:35;;;;;;;0.90;0.68;;;;;;;;;;5063004;28;20484;-85
2022/12/26 02:20:20;;;;;;;0.50;0.50;;;;;;;;;;5063092;28;20042;-83
2022/12/26 02:23:12;;;;;;;0.52;0.40;;;;;;;;;;5062424;28;20099;-84
2022/12/26 02:25:58;;;;;;;0.68;0.30;;;;;;;;;;5062046;28;20701;-82
2022/12/26 02:28:29;;;;;;;0.30;0.30;;;;;;;;;;5060667;28;20061;-85
2022/12/26 02:31:18;;;;;;;1.17;0.52;;;;;;;;;;5051637;28;20029;-83
2022/12/26 02:34:03;;;;;;;0.40;0.40;;;;;;;;;;5067608;28;20039;-84
2022/12/26 02:36:31;;;;;;;3.97;1.27;;;;;;;;;;5057637;28;20024;-86
2022/12/26 02:39:25;;;;;;;0.32;0.32;;;;;;;;;;5063810;28;20033;-85
2022/12/26 02:42:17;;;;;;;3.08;0.80;;;;;;;;;;5062042;28;20542;-85
2022/12/26 02:47:57;;;;;;;0.43;0.43;;;;;;;;;;5062276;28;20055;-84
2022/12/26 03:13:18;;;;;;;0.60;0.50;;;;;;;;;;5062942;28;20095;-84
2022/12/26 03:18:53;;;;;;;2.15;0.60;;;;;;;;;;5058484;28;20116;-86
2022/12/26 03:21:23;;;;;;;1.08;0.20;;;;;;;;;;5057233;28;20033;-86
2022/12/26 03:23:52;;;;;;;0.30;0.30;;;;;;;;;;5056830;28;20033;-84
2022/12/26 03:26:39;;;;;;;0.38;0.32;;;;;;;;;;5060775;28;20029;-86
2022/12/26 03:32:12;;;;;;;1.23;1.13;;;;;;;;;;5038541;28;20032;-86
2022/12/26 03:34:43;;;;;;;1.83;1.42;;;;;;;;;;5053299;28;20924;-84
2022/12/26 03:37:34;;;;;;;2.65;2.08;;;;;;;;;;5057594;28;20047;-85
2022/12/26 04:19:25;;;;;;;2.20;1.35;;;;;;;;;;5055440;28;20067;-82
2022/12/26 04:44:43;;;;;;;0.55;0.32;;;;;;;;;;5064648;28;20541;-86
2022/12/26 04:47:09;;;;;;;0.65;0.63;;;;;;;;;;5058014;28;20045;-85
2022/12/26 04:52:59;;;;;;;5.75;1.08;;;;;;;;;;5035224;28;20497;-83
2022/12/26 04:55:27;;;;;;;0.45;0.45;;;;;;;;;;5059626;28;20057;-85
2022/12/26 04:57:53;;;;;;;3.45;2.00;;;;;;;;;;5056271;28;20477;-83
2022/12/26 05:00:18;;;;;;;0.30;0.30;;;;;;;;;;5059621;28;20079;-86
2022/12/26 05:11:27;;;;;;;0.60;0.43;;;;;;;;;;5062721;28;20047;-83
2022/12/26 05:13:54;;;;;;;0.98;0.52;;;;;;;;;;5062288;28;20523;-84
2022/12/26 05:30:05;;;;;;;0.50;0.50;;;;;;;;;;5062832;28;20039;-87
2022/12/26 05:35:15;;;;;;;1.35;0.68;;;;;;;;;;5065731;28;20032;-85
2022/12/26 05:37:40;;;;;;;1.75;1.60;;;;;;;;;;5059774;28;20104;-84
2022/12/26 05:40:07;;;;;;;0.85;0.85;;;;;;;;;;5065245;28;20381;-85
2022/12/26 05:42:32;;;;;;;1.25;1.15;;;;;;;;;;5063945;28;20075;-89
2022/12/26 05:44:57;;;;;;;1.23;1.02;;;;;;;;;;5066176;28;20488;-88
2022/12/26 05:47:23;;;;;;;0.77;0.77;;;;;;;;;;5066165;28;20040;-85
2022/12/26 05:49:48;;;;;;;1.55;0.60;;;;;;;;;;5064437;28;20537;-89
2022/12/26 05:52:14;;;;;;;0.40;0.40;;;;;;;;;;5065218;28;20060;-87
2022/12/26 05:54:39;;;;;;;0.80;0.80;;;;;;;;;;5065225;28;20123;-90
2022/12/26 05:57:04;;;;;;;0.25;0.25;;;;;;;;;;5063272;28;20044;-89
2022/12/26 05:59:30;;;;;;;1.60;1.50;;;;;;;;;;5062270;28;20021;-86
2022/12/26 06:01:55;;;;;;;1.13;1.02;;;;;;;;;;5064974;28;20047;-89
2022/12/26 06:04:20;;;;;;;3.33;1.48;;;;;;;;;;5066142;28;20103;-89
2022/12/26 06:06:46;;;;;;;0.98;0.95;;;;;;;;;;5063716;28;20503;-91
2022/12/26 06:09:11;;;;;;;3.70;2.00;;;;;;;;;;5064679;28;20080;-91
2022/12/26 06:11:37;;;;;;;1.48;1.38;;;;;;;;;;5064655;28;20028;-88
2022/12/26 06:14:03;;;;;;;2.30;0.98;;;;;;;;;;5063533;28;20114;-89
2022/12/26 06:16:29;;;;;;;0.65;0.65;;;;;;;;;;5059502;28;20024;-89
2022/12/26 06:18:55;;;;;;;1.50;0.47;;;;;;;;;;5063929;28;20035;-88
2022/12/26 06:21:21;;;;;;;0.20;0.20;;;;;;;;;;5059959;28;20029;-89
2022/12/26 06:23:48;;;;;;;1.95;0.50;;;;;;;;;;5064203;28;20111;-91
2022/12/26 06:26:13;;;;;;;1.73;0.77;;;;;;;;;;5059993;28;20485;-87
2022/12/26 06:28:40;;;;;;;1.63;0.60;;;;;;;;;;5062029;28;20196;-89
2022/12/26 06:31:19;;;;;;;1.42;1.17;;;;;;;;;;5060452;28;20420;-87
2022/12/26 06:33:45;;;;;;;1.27;1.02;;;;;;;;;;5057674;28;20020;-90
2022/12/26 06:36:16;;;;;;;0.75;0.75;;;;;;;;;;5061790;28;20031;-89
2022/12/26 06:38:42;;;;;;;1.75;1.45;;;;;;;;;;5060499;28;21787;-90
2022/12/26 06:41:11;;;;;;;1.73;0.93;;;;;;;;;;5061721;28;20079;-91
2022/12/26 06:43:37;;;;;;;2.42;1.75;;;;;;;;;;5058013;28;20036;-91
2022/12/26 06:46:04;;;;;;;3.60;2.35;;;;;;;;;;5066069;28;20032;-92
2022/12/26 06:48:31;;;;;;;1.08;1.00;;;;;;;;;;5064152;28;20492;-89
2022/12/26 06:50:56;;;;;;;1.27;1.17;;;;;;;;;;5059737;28;20111;-90
2022/12/26 06:53:23;;;;;;;1.20;1.10;;;;;;;;;;5069206;28;20068;-91
2022/12/26 06:55:49;;;;;;;5.00;1.63;;;;;;;;;;5064247;28;20537;-93
2022/12/26 06:58:17;;;;;;;2.08;1.90;;;;;;;;;;5062615;28;20111;-89
2022/12/26 07:00:43;;;;;;;2.00;1.83;;;;;;;;;;5060916;28;20051;-91
2022/12/26 07:03:10;;;;;;;1.75;1.42;;;;;;;;;;5064424;28;20025;-90
2022/12/26 07:05:36;;;;;;;3.97;3.20;;;;;;;;;;5064175;28;20021;-90
2022/12/26 07:08:01;;;;;;;5.35;3.08;;;;;;;;;;5063305;28;20025;-91
2022/12/26 07:10:27;;;;;;;2.42;1.63;;;;;;;;;;5061127;28;20124;-90
2022/12/26 07:12:52;;;;;;;4.00;2.35;;;;;;;;;;5064393;28;20024;-91
2022/12/26 07:15:18;;;;;;;4.82;2.58;;;;;;;;;;5061833;28;20017;-92
2022/12/26 07:17:43;;;;;;;4.90;2.58;;;;;;;;;;5062757;28;20515;-91
2022/12/26 07:20:09;;;;;;;3.95;2.00;;;;;;;;;;5063160;28;20126;-89
2022/12/26 07:22:35;;;;;;;8.05;4.00;;;;;;;;;;5066019;28;20027;-88
2022/12/26 07:25:00;;;;;;;5.45;2.40;;;;;;;;;;5063632;28;20410;-89
2022/12/26 07:27:26;;;;;;;4.60;3.28;;;;;;;;;;5063922;28;20111;-88
2022/12/26 07:29:51;;;;;;;2.30;2.03;;;;;;;;;;5062755;28;20036;-90
2022/12/26 07:32:16;;;;;;;2.92;2.22;;;;;;;;;;5060144;28;20024;-88
2022/12/26 07:34:42;;;;;;;5.97;3.20;;;;;;;;;;5062388;28;20461;-90
2022/12/26 07:37:10;;;;;;;4.03;2.90;;;;;;;;;;5059536;28;20021;-90
2022/12/26 07:39:36;;;;;;;5.55;3.65;;;;;;;;;;5063962;28;20107;-93
2022/12/26 07:42:03;;;;;;;9.73;3.30;;;;;;;;;;5063809;28;20080;-92
2022/12/26 07:44:30;;;;;;;5.00;3.10;;;;;;;;;;5054895;28;20503;-93
2022/12/26 07:46:57;;;;;;;9.45;5.22;;;;;;;;;;5062016;28;20400;-88
2022/12/26 07:49:23;;;;;;;7.72;4.65;;;;;;;;;;5061024;28;20055;-88
2022/12/26 07:51:49;;;;;;;10.55;5.50;;;;;;;;;;5066283;28;20111;-90
2022/12/26 07:54:14;;;;;;;4.22;2.78;;;;;;;;;;5055501;28;20033;-88
2022/12/26 07:56:40;;;;;;;3.45;2.65;;;;;;;;;;5061681;28;20468;-88
2022/12/26 07:59:07;;;;;;;6.68;3.03;;;;;;;;;;5060172;28;20027;-88
2022/12/26 08:01:32;;;;;;;10.15;3.22;;;;;;;;;;5059937;28;20051;-91
2022/12/26 08:03:58;;;;;;;4.55;3.85;;;;;;;;;;5061121;28;20017;-91
2022/12/26 08:06:23;;;;;;;4.53;2.55;;;;;;;;;;5060565;28;20028;-89
2022/12/26 08:08:49;;;;;;;5.93;3.65;;;;;;;;;;5059037;28;20027;-89
2022/12/26 08:11:18;;;;;;;9.68;4.70;;;;;;;;;;5059914;28;20063;-92
2022/12/26 08:13:43;;;;;;;6.82;4.65;;;;;;;;;;5063093;28;20043;-88
2022/12/26 08:16:12;;;;;;;7.93;5.28;;;;;;;;;;5061825;28;20033;-90
2022/12/26 08:18:37;;;;;;;8.77;5.20;;;;;;;;;;5058828;28;20107;-90
2022/12/26 08:21:03;;;;;;;5.30;3.70;;;;;;;;;;5064318;28;20104;-90
2022/12/26 08:23:28;;;;;;;4.07;2.83;;;;;;;;;;5061406;28;20116;-89
2022/12/26 08:25:53;;;;;;;6.47;4.43;;;;;;;;;;5062854;28;20556;-87
2022/12/26 08:28:19;;;;;;;11.98;3.80;;;;;;;;;;5056445;28;20032;-89
2022/12/26 08:30:45;;;;;;;7.05;3.97;;;;;;;;;;5060853;28;20112;-87
2022/12/26 08:33:11;;;;;;;8.02;5.65;;;;;;;;;;5059711;28;20028;-88
2022/12/26 08:35:37;;;;;;;11.25;4.15;;;;;;;;;;5061948;28;20036;-89
2022/12/26 08:38:04;;;;;;;5.10;3.40;;;;;;;;;;5060570;28;20027;-92
2022/12/26 08:40:29;;;;;;;12.43;6.18;;;;;;;;;;5055205;28;20036;-90
2022/12/26 08:42:55;;;;;;;7.82;4.88;;;;;;;;;;5057661;28;20025;-87
2022/12/26 08:45:21;;;;;;;7.53;4.93;;;;;;;;;;5065579;28;20013;-93
2022/12/26 08:47:46;;;;;;;8.85;3.92;;;;;;;;;;5056889;28;20116;-91
2022/12/26 08:50:12;;;;;;;7.35;4.20;;;;;;;;;;5057718;28;20025;-91
2022/12/26 08:52:37;;;;;;;8.23;5.03;;;;;;;;;;5063555;28;20112;-88
2022/12/26 08:55:16;;;;;;;5.55;4.57;;;;;;;;;;5139932;27;20359;-92
2022/12/26 09:01:41;;;;;;;7.13;4.82;;;;;;;;;;5138073;27;20122;-87
2022/12/26 09:04:07;;;;;;;6.50;4.40;;;;;;;;;;5134836;27;20095;-88
2022/12/26 09:07:24;;;;;;;8.25;5.05;;;;;;;;;;5138788;27;20027;-89
2022/12/26 09:10:34;;;;;;;12.85;6.07;;;;;;;;;;5140787;27;20113;-86
2022/12/26 09:13:02;;;;;;;;;;;;;;;;;;5135101;27;20039;-89
2022/12/26 09:15:28;;;;;;;7.40;5.82;;;;;;;;;;5138678;27;19915;-87
2022/12/26 09:17:53;;;;;;;10.23;6.20;;;;;;;;;;5142916;27;20160;-89
2022/12/26 09:20:51;;;;;;;11.65;7.95;;;;;;;;;;5132088;27;20543;-89
2022/12/26 09:23:43;;;;;;;8.45;5.88;;;;;;;;;;5138263;27;20396;-88
2022/12/26 09:26:11;;;;;;;6.40;4.32;;;;;;;;;;5139161;27;20023;-87
2022/12/26 09:28:37;;;;;;;9.65;5.50;;;;;;;;;;5139145;27;20028;-87
2022/12/26 09:31:08;;;;;;;11.68;4.88;;;;;;;;;;5140038;27;20034;-91
2022/12/26 09:33:36;;;;;;;5.60;4.65;;;;;;;;;;5133230;27;20101;-90
2022/12/26 09:36:07;;;;;;;6.00;3.75;;;;;;;;;;5137995;27;20037;-87
2022/12/26 09:38:35;;;;;;;7.47;3.70;;;;;;;;;;5134753;27;20034;-88
2022/12/26 09:41:27;;;;;;;3.75;3.05;;;;;;;;;;5141424;27;20393;-90
2022/12/26 09:44:11;;;;;;;3.42;2.60;;;;;;;;;;5135883;27;20031;-86
2022/12/26 09:46:50;;;;;;;6.60;3.13;;;;;;;;;;5133250;27;20032;-87
2022/12/26 09:49:21;;;;;;;6.40;3.28;;;;;;;;;;5132935;27;20471;-88
2022/12/26 09:51:51;;;;;;;8.52;3.85;;;;;;;;;;5146174;27;20037;-89
2022/12/26 09:54:30;;;;;;;8.27;4.38;;;;;;;;;;5131074;27;20043;-90
2022/12/26 09:56:57;;;;;;;7.07;3.75;;;;;;;;;;5133321;27;20030;-89
2022/12/26 09:59:25;;;;;;;6.40;3.38;;;;;;;;;;5135223;27;20406;-88
2022/12/26 10:01:52;;;;;;;5.30;2.83;;;;;;;;;;5132511;27;20016;-88
2022/12/26 10:04:24;;;;;;;6.00;4.03;;;;;;;;;;5133887;27;20018;-87
2022/12/26 10:07:08;;;;;;;7.70;3.80;;;;;;;;;;5124147;27;20356;-90
2022/12/26 10:09:33;;;;;;;4.28;3.17;;;;;;;;;;5119976;27;20022;-89
2022/12/26 10:12:05;;;;;;;3.75;3.25;;;;;;;;;;5122154;27;20028;-89
2022/12/26 10:14:36;;;;;;;6.18;4.38;;;;;;;;;;5119670;27;20027;-86
2022/12/26 10:17:19;;;;;;;7.63;3.70;;;;;;;;;;5121954;27;20110;-87
2022/12/26 10:19:44;;;;;;;5.55;3.05;;;;;;;;;;5120479;27;20364;-86
2022/12/26 10:22:27;;;;;;;3.60;2.80;;;;;;;;;;5126126;27;20080;-91
2022/12/26 10:24:55;;;;;;;3.75;2.97;;;;;;;;;;5122289;27;20023;-85
2022/12/26 10:27:23;;;;;;;4.93;3.08;;;;;;;;;;5120113;27;20035;-87
2022/12/26 10:30:02;;;;;;;5.03;3.90;;;;;;;;;;5122139;27;20051;-87
2022/12/26 10:32:42;;;;;;;5.93;3.03;;;;;;;;;;5118820;27;20032;-85
2022/12/26 10:35:21;;;;;;;;;;;;;;;;;;5118211;27;20034;-86
2022/12/26 10:37:49;;;;;;;8.57;5.13;;;;;;;;;;5134508;27;19912;-88
2022/12/26 10:40:27;;;;;;;5.90;4.70;;;;;;;;;;5119216;27;20028;-86
2022/12/26 10:42:54;;;;;;;4.82;3.15;;;;;;;;;;5121915;27;20019;-88
2022/12/26 10:46:10;;;;;;;8.82;3.95;;;;;;;;;;5124288;27;20028;-87
2022/12/26 10:48:36;;;;;;;5.57;3.88;;;;;;;;;;5095127;27;20123;-87
2022/12/26 10:51:02;;;;;;;4.20;3.17;;;;;;;;;;5125025;27;20102;-88
2022/12/26 10:53:27;;;;;;;4.03;2.80;;;;;;;;;;5123117;27;20050;-87
2022/12/26 10:55:53;;;;;;;4.57;3.35;;;;;;;;;;5118512;27;20024;-88
2022/12/26 10:58:24;;;;;;;5.55;3.88;;;;;;;;;;5120647;27;20027;-86
2022/12/26 11:00:49;;;;;;;6.57;4.25;;;;;;;;;;5120400;27;20023;-85
2022/12/26 11:03:18;;;;;;;8.27;3.35;;;;;;;;;;5117409;27;20076;-85
2022/12/26 11:05:47;;;;;;;3.05;2.42;;;;;;;;;;5116249;27;20027;-88
2022/12/26 11:08:48;;;;;;;4.30;2.72;;;;;;;;;;5115616;27;20031;-85
2022/12/26 11:11:22;;;;;;;2.70;2.13;;;;;;;;;;5121542;27;20055;-85
2022/12/26 11:13:59;;;;;;;4.15;3.25;;;;;;;;;;5119547;27;20024;-84
2022/12/26 11:16:32;;;;;;;3.78;3.13;;;;;;;;;;5119045;27;20019;-84
2022/12/26 11:18:57;;;;;;;7.82;3.53;;;;;;;;;;5119092;27;20015;-86
2022/12/26 11:21:26;;;;;;;6.63;4.10;;;;;;;;;;5120627;27;20083;-85
2022/12/26 11:24:09;;;;;;;4.13;2.67;;;;;;;;;;5125179;27;20034;-86
2022/12/26 11:26:36;;;;;;;3.60;2.88;;;;;;;;;;5116802;27;20020;-85
2022/12/26 11:29:17;;;;;;;6.93;2.80;;;;;;;;;;5119864;27;20024;-88
2022/12/26 11:32:08;;;;;;;4.20;3.22;;;;;;;;;;5121671;27;20027;-85
2022/12/26 11:34:46;;;;;;;5.85;3.25;;;;;;;;;;5123126;27;20532;-85
2022/12/26 11:37:26;;;;;;;4.03;2.65;;;;;;;;;;5119776;27;20036;-86
2022/12/26 11:39:52;;;;;;;6.30;2.55;;;;;;;;;;5119208;27;20027;-85
2022/12/26 11:42:21;;;;;;;3.83;2.65;;;;;;;;;;5120383;27;20070;-85
2022/12/26 11:44:51;;;;;;;4.78;3.20;;;;;;;;;;5121656;27;20027;-84
2022/12/26 11:47:19;;;;;;;6.32;3.72;;;;;;;;;;5123686;27;20034;-86
2022/12/26 11:49:56;;;;;;;4.97;3.53;;;;;;;;;;5120098;27;20027;-86
2022/12/26 11:52:37;;;;;;;3.78;2.13;;;;;;;;;;5124141;27;20035;-85
2022/12/26 11:55:21;;;;;;;4.03;2.45;;;;;;;;;;5121449;27;20047;-87
2022/12/26 11:58:00;;;;;;;3.33;2.25;;;;;;;;;;5120930;27;20110;-84
2022/12/26 12:00:27;;;;;;;5.47;3.38;;;;;;;;;;5115264;27;20039;-84
2022/12/26 12:02:52;;;;;;;7.53;3.70;;;;;;;;;;5120094;27;20027;-85
2022/12/26 12:05:29;;;;;;;3.13;2.28;;;;;;;;;;5122817;27;20035;-86
2022/12/26 12:08:21;;;;;;;3.38;2.05;;;;;;;;;;5123461;27;20027;-86
2022/12/26 12:10:55;;;;;;;6.00;2.15;;;;;;;;;;5121356;27;20914;-85
2022/12/26 12:13:40;;;;;;;3.38;2.40;;;;;;;;;;5120796;27;20030;-86
2022/12/26 12:16:27;;;;;;;4.25;2.60;;;;;;;;;;5118139;27;20087;-86
2022/12/26 12:19:10;;;;;;;3.13;2.47;;;;;;;;;;5119940;27;20024;-85
2022/12/26 12:21:43;;;;;;;2.60;2.08;;;;;;;;;;5121736;27;20501;-85
2022/12/26 12:24:19;;;;;;;2.90;1.85;;;;;;;;;;5119087;27;20049;-85
2022/12/26 12:27:20;;;;;;;4.32;2.95;;;;;;;;;;5118074;27;20036;-86
2022/12/26 12:30:00;;;;;;;3.28;1.75;;;;;;;;;;5116970;27;20023;-87
2022/12/26 12:32:33;;;;;;;1.70;1.60;;;;;;;;;;5124407;27;20027;-88
2022/12/26 12:35:17;;;;;;;3.63;2.00;;;;;;;;;;5119706;27;20020;-86
2022/12/26 12:38:20;;;;;;;4.53;2.38;;;;;;;;;;5115800;27;20019;-84
2022/12/26 12:41:03;;;;;;;5.60;2.60;;;;;;;;;;5122216;27;20030;-85
2022/12/26 12:43:32;;;;;;;10.52;5.60;;;;;;;;;;5123230;27;20054;-86
2022/12/26 12:46:32;;;;;;;6.00;3.42;;;;;;;;;;5119009;27;20054;-87
2022/12/26 12:49:17;;;;;;;5.47;3.30;;;;;;;;;;5097841;28;20510;-85
2022/12/26 12:52:16;;;;;;;6.85;2.83;;;;;;;;;;5119065;28;20038;-86
2022/12/26 12:55:16;;;;;;;4.53;3.27;;;;;;;;;;5117536;28;20134;-86
2022/12/26 12:57:48;;;;;;;5.53;3.88;;;;;;;;;;5120355;28;20031;-87
2022/12/26 13:00:16;;;;;;;4.60;3.30;;;;;;;;;;5123033;28;20051;-87
2022/12/26 13:03:09;;;;;;;8.82;5.30;;;;;;;;;;5129919;27;20023;-86
2022/12/26 13:06:02;;;;;;;2.75;2.45;;;;;;;;;;5120996;28;20036;-86
2022/12/26 13:08:39;;;;;;;4.90;3.05;;;;;;;;;;5117842;28;20024;-86
2022/12/26 13:11:12;;;;;;;3.60;2.78;;;;;;;;;;5123755;28;20038;-86
2022/12/26 13:13:47;;;;;;;4.63;2.38;;;;;;;;;;5113845;28;20031;-86
2022/12/26 13:16:23;;;;;;;3.53;2.13;;;;;;;;;;5124086;28;20119;-87
2022/12/26 13:19:02;;;;;;;3.33;2.20;;;;;;;;;;5116079;28;20024;-86
2022/12/26 13:21:33;;;;;;;5.00;2.53;;;;;;;;;;5120958;28;20072;-86
2022/12/26 13:24:22;;;;;;;3.78;1.75;;;;;;;;;;5118229;28;20080;-87
2022/12/26 13:27:17;;;;;;;3.03;1.95;;;;;;;;;;5114406;28;20467;-86
2022/12/26 13:29:44;;;;;;;2.47;1.10;;;;;;;;;;5089816;28;20048;-86
2022/12/26 13:32:25;;;;;;;2.90;1.67;;;;;;;;;;5118957;28;20035;-86
2022/12/26 13:34:53;;;;;;;1.20;1.10;;;;;;;;;;5119443;28;20422;-86
2022/12/26 13:37:37;;;;;;;1.33;1.23;;;;;;;;;;5122571;28;20029;-86
2022/12/26 13:40:12;;;;;;;2.35;1.45;;;;;;;;;;5120786;27;20035;-86
2022/12/26 13:45:45;;;;;;;;;;;;;;;;;;5123964;27;20070;-86
2022/12/26 13:48:16;;;;;;;1.05;0.98;;;;;;;;;;5123940;27;19956;-88
2022/12/26 13:50:48;;;;;;;1.40;1.10;;;;;;;;;;5128371;27;20475;-86
2022/12/26 13:53:30;;;;;;;1.40;1.10;;;;;;;;;;5122618;27;20127;-85
2022/12/26 13:56:17;;;;;;;2.30;1.38;;;;;;;;;;5121325;27;20024;-87
2022/12/26 13:58:45;;;;;;;3.10;1.88;;;;;;;;;;5117598;27;20019;-86
2022/12/26 14:01:33;;;;;;;2.97;2.15;;;;;;;;;;5125265;27;20538;-86
2022/12/26 14:04:36;;;;;;;3.83;1.70;;;;;;;;;;5127330;27;20486;-86
2022/12/26 14:07:53;;;;;;;4.60;2.92;;;;;;;;;;5122274;27;20019;-86
2022/12/26 14:10:57;;;;;;;2.20;1.38;;;;;;;;;;5082970;27;20111;-86
2022/12/26 14:13:50;;;;;;;2.17;1.35;;;;;;;;;;5122372;27;20038;-86
2022/12/26 14:16:34;;;;;;;3.03;1.70;;;;;;;;;;5118143;27;20043;-84
2022/12/26 14:19:39;;;;;;;2.17;1.17;;;;;;;;;;5121491;27;20076;-87
2022/12/26 14:22:28;;;;;;;1.08;0.77;;;;;;;;;;5121996;27;20031;-87
2022/12/26 14:25:23;;;;;;;1.45;1.10;;;;;;;;;;5122819;27;20375;-86
2022/12/26 14:27:51;;;;;;;1.58;0.90;;;;;;;;;;5122512;27;20044;-85
2022/12/26 14:30:38;;;;;;;1.15;0.93;;;;;;;;;;5124158;27;20023;-86
2022/12/26 14:33:29;;;;;;;1.48;0.85;;;;;;;;;;5123742;27;20031;-86
2022/12/26 14:36:15;;;;;;;0.95;0.60;;;;;;;;;;5118208;27;20509;-86
2022/12/26 14:39:05;;;;;;;2.75;0.60;;;;;;;;;;5117303;27;20023;-86
2022/12/26 14:44:54;;;;;;;0.45;0.43;;;;;;;;;;5122708;27;20165;-87
2022/12/26 14:47:37;;;;;;;0.85;0.68;;;;;;;;;;5122517;27;20472;-86
2022/12/26 14:50:31;;;;;;;0.50;0.50;;;;;;;;;;5121191;27;20031;-85
2022/12/26 14:53:27;;;;;;;0.73;0.60;;;;;;;;;;5127187;27;20023;-86
2022/12/26 14:55:59;;;;;;;0.60;0.50;;;;;;;;;;5125477;27;20031;-84
2022/12/26 14:58:27;;;;;;;0.52;0.52;;;;;;;;;;5123745;27;20024;-86
2022/12/26 15:00:53;;;;;;;1.30;0.88;;;;;;;;;;5121163;27;20094;-87
2022/12/26 15:03:22;;;;;;;1.02;1.02;;;;;;;;;;5121986;27;20076;-85
2022/12/26 15:05:50;;;;;;;0.80;0.80;;;;;;;;;;5125640;27;20019;-86
2022/12/26 15:08:43;;;;;;;1.83;1.13;;;;;;;;;;5124313;27;20035;-86
2022/12/26 15:11:32;;;;;;;0.85;0.85;;;;;;;;;;5126485;27;21376;-86
2022/12/26 15:14:19;;;;;;;0.77;0.73;;;;;;;;;;5119513;27;20098;-86
2022/12/26 15:16:58;;;;;;;5.85;2.75;;;;;;;;;;5122392;27;20034;-87
2022/12/26 15:19:39;;;;;;;6.85;2.15;;;;;;;;;;5121717;27;20048;-86
2022/12/26 15:22:20;;;;;;;0.82;0.80;;;;;;;;;;5123685;27;20035;-85
2022/12/26 15:25:18;;;;;;;1.40;0.43;;;;;;;;;;5120901;27;20051;-84
2022/12/26 15:27:55;;;;;;;0.93;0.90;;;;;;;;;;5119573;27;20039;-86
2022/12/26 15:30:49;;;;;;;0.63;0.55;;;;;;;;;;5122602;27;20104;-86
2022/12/26 15:33:19;;;;;;;5.20;3.45;;;;;;;;;;5127348;27;20114;-86
2022/12/26 15:35:49;;;;;;;;;;;;;;;;;;5124583;27;20140;-87
2022/12/26 15:38:33;;;;;;;;;;;;;;;;;;5128038;27;19929;-86
2022/12/26 15:41:23;;;;;;;1.20;1.10;;;;;;;;;;5116805;27;19960;-86
2022/12/26 15:44:15;;;;;;;3.38;1.08;;;;;;;;;;5120335;27;20425;-88
2022/12/26 15:47:05;;;;;;;0.82;0.65;;;;;;;;;;5121828;27;20031;-87
2022/12/26 15:50:08;;;;;;;0.52;0.50;;;;;;;;;;5120912;27;20022;-86
2022/12/26 15:52:47;;;;;;;0.50;0.50;;;;;;;;;;5119222;27;20019;-84
2022/12/26 15:55:29;;;;;;;0.60;0.60;;;;;;;;;;5121549;27;20395;-86
2022/12/26 15:58:01;;;;;;;0.45;0.40;;;;;;;;;;5121667;27;20093;-87
2022/12/26 16:00:37;;;;;;;0.30;0.30;;;;;;;;;;5120198;27;20027;-87
2022/12/26 16:03:21;;;;;;;0.52;0.52;;;;;;;;;;5121783;27;20421;-84
2022/12/26 16:06:01;;;;;;;0.50;0.50;;;;;;;;;;5117886;27;20027;-86
2022/12/26 16:08:39;;;;;;;0.38;0.38;;;;;;;;;;5123896;27;20031;-85
2022/12/26 16:11:23;;;;;;;1.17;0.68;;;;;;;;;;5118664;27;20053;-86
2022/12/26 16:14:00;;;;;;;0.25;0.25;;;;;;;;;;5118562;27;20026;-86
2022/12/26 16:16:29;;;;;;;1.35;1.25;;;;;;;;;;5117893;27;20035;-85
2022/12/26 16:18:55;;;;;;;1.10;0.70;;;;;;;;;;5120303;27;20391;-86
2022/12/26 16:24:11;;;;;;;0.60;0.60;;;;;;;;;;5122728;27;20030;-86
2022/12/26 16:26:43;;;;;;;1.33;0.80;;;;;;;;;;5118861;27;20027;-85
2022/12/26 16:29:18;;;;;;;0.45;0.35;;;;;;;;;;5122244;27;20508;-84
2022/12/26 16:31:44;;;;;;;1.17;0.70;;;;;;;;;;5120766;27;20019;-87
2022/12/26 16:34:15;;;;;;;0.75;0.55;;;;;;;;;;5125186;27;20379;-86
2022/12/26 16:36:41;;;;;;;3.97;0.85;;;;;;;;;;5119046;27;20094;-85
2022/12/26 16:39:11;;;;;;;0.20;0.20;;;;;;;;;;5118940;27;20457;-84
2022/12/26 16:42:14;;;;;;;0.68;0.68;;;;;;;;;;5122589;27;20478;-87
2022/12/26 16:44:43;;;;;;;0.88;0.80;;;;;;;;;;5121166;27;20032;-86
2022/12/26 16:47:14;;;;;;;0.77;0.25;;;;;;;;;;5117538;28;20030;-85
2022/12/26 16:49:42;;;;;;;0.60;0.60;;;;;;;;;;5120858;27;20420;-85
2022/12/26 16:52:29;;;;;;;2.20;1.02;;;;;;;;;;5120184;27;20039;-84
2022/12/26 16:54:55;;;;;;;1.17;1.02;;;;;;;;;;5122288;28;20044;-83
2022/12/26 16:57:21;;;;;;;1.10;0.88;;;;;;;;;;5123373;27;20080;-84
2022/12/26 16:59:51;;;;;;;1.80;1.23;;;;;;;;;;5124987;28;20545;-83
2022/12/26 17:02:24;;;;;;;5.43;2.40;;;;;;;;;;5121731;27;20023;-83
2022/12/26 17:04:58;;;;;;;5.90;2.33;;;;;;;;;;5124460;28;20032;-83
2022/12/26 17:07:23;;;;;;;3.90;2.95;;;;;;;;;;5118818;28;20085;-83
2022/12/26 17:09:54;;;;;;;2.20;1.48;;;;;;;;;;5123466;27;20031;-83
2022/12/26 17:12:26;;;;;;;2.70;1.50;;;;;;;;;;5124514;28;20019;-83
2022/12/26 17:14:54;;;;;;;2.63;1.55;;;;;;;;;;5118357;27;20023;-83
2022/12/26 17:17:22;;;;;;;1.13;1.00;;;;;;;;;;5125130;27;20063;-82
2022/12/26 17:19:54;;;;;;;3.05;1.75;;;;;;;;;;5127779;27;20024;-83
2022/12/26 17:22:24;;;;;;;1.63;1.50;;;;;;;;;;5125473;27;20031;-83
2022/12/26 17:24:51;;;;;;;2.28;0.80;;;;;;;;;;5121156;27;20039;-83
2022/12/26 17:27:19;;;;;;;2.83;1.55;;;;;;;;;;5128568;27;20061;-84
2022/12/26 17:29:52;;;;;;;5.65;2.55;;;;;;;;;;5121455;27;20024;-85
2022/12/26 17:32:20;;;;;;;1.55;1.00;;;;;;;;;;5122342;27;20474;-84
2022/12/26 17:34:46;;;;;;;1.30;1.08;;;;;;;;;;5119723;27;20031;-83
2022/12/26 17:37:21;;;;;;;1.30;1.10;;;;;;;;;;5128428;27;20058;-82
2022/12/26 17:40:01;;;;;;;0.90;0.68;;;;;;;;;;5122017;27;20383;-83